»·PEaware :: SWA1057 KLAS-KPHX

SWA1057 :: KLAS-KPHX

FLIGHT INFORMATION

Flight Status: Arrived
Operator:
Southwest Airlines
More flights by this operator :: More flights under this callsign
Pilot: Ryan B. (8502)
Aircraft: BOEING 737-400
(B734)
More flights by this aircraft type
Origin: KLAS McCarran Intl
United States
Destination: KPHX Phoenix Sky Harbor Intl
United States
More flights between these airports :: More routes between these airports
Route: COWBY6 COWBY TENTS BRUSR1
File this flight plan on PilotEdge
Remarks:
Altitude:
(Current/Filed)
29,000ft
Speed:
(Current/Filed)
400kts
Departed: 14-Feb-17 06:58 PM
Arrived: 14-Feb-17 07:49 PM
Distance/Time
Traveled:
222nm/0:51
Distance/Time
To Go:
Arrived

Flight Plot

Page will automatically refresh every two minutes.


Map Options




Map Legend


Flown Route
Filed Route
Departure Airport
Arrival Airport
Navaid (VOR, NDB)
Fix

Horizontal Profiles

Position Reports

Time Latitude Longitude Heading Altitude Ground
Speed
14-Feb-17 18:42 36.080934 -115.146014 255 2090ft 0kts
14-Feb-17 18:43 36.080934 -115.146014 255 2090ft 0kts
14-Feb-17 18:44 36.080934 -115.146014 255 2090ft 0kts
14-Feb-17 18:45 36.080934 -115.146014 255 2090ft 0kts
14-Feb-17 18:46 36.080934 -115.146014 255 2090ft 0kts
14-Feb-17 18:47 36.080934 -115.146014 255 2090ft 0kts
14-Feb-17 18:48 36.080934 -115.146014 255 2090ft 0kts
14-Feb-17 18:49 36.080934 -115.146014 255 2090ft 0kts
14-Feb-17 18:50 36.080988 -115.145761 255 2090ft 0kts
14-Feb-17 18:51 36.081352 -115.145393 170 2088ft 0kts
14-Feb-17 18:52 36.081404 -115.145405 168 2088ft 0kts
14-Feb-17 18:53 36.081243 -115.145342 156 2088ft 5kts
14-Feb-17 18:54 36.078501 -115.144925 182 2093ft 11kts
14-Feb-17 18:55 36.077814 -115.147801 274 2103ft 23kts
14-Feb-17 18:56 36.078022 -115.159495 269 2146ft 33kts
14-Feb-17 18:57 36.076344 -115.160789 87 2155ft 0kts
14-Feb-17 18:58 36.076266 -115.127639 89 2366ft 178kts
14-Feb-17 18:59 36.074121 -115.062882 100 4304ft 212kts
14-Feb-17 19:00 36.073724 -114.985453 85 6287ft 245kts
14-Feb-17 19:01 36.067525 -114.897266 96 8736ft 270kts
14-Feb-17 19:02 36.055081 -114.808481 97 11494ft 268kts
14-Feb-17 19:03 36.042227 -114.718746 96 13878ft 270kts
14-Feb-17 19:04 36.029139 -114.626146 96 16074ft 279kts
14-Feb-17 19:05 36.015639 -114.530731 96 18298ft 288kts
14-Feb-17 19:06 36.000479 -114.432196 96 20424ft 298kts
14-Feb-17 19:07 35.985732 -114.333370 96 22395ft 306kts
14-Feb-17 19:08 35.970558 -114.229696 96 24294ft 316kts
14-Feb-17 19:09 35.955170 -114.124906 96 26113ft 320kts
14-Feb-17 19:10 35.939648 -114.019832 95 28154ft 309kts
14-Feb-17 19:11 35.923899 -113.913496 95 29187ft 327kts
14-Feb-17 19:12 35.892881 -113.802066 104 29193ft 381kts
14-Feb-17 19:13 35.854791 -113.672111 105 29191ft 429kts
14-Feb-17 19:14 35.813859 -113.532339 105 29172ft 437kts
14-Feb-17 19:15 35.772526 -113.391677 105 29168ft 437kts
14-Feb-17 19:16 35.731969 -113.254321 105 29172ft 438kts
14-Feb-17 19:17 35.690395 -113.114254 105 29223ft 434kts
14-Feb-17 19:18 35.650623 -112.980845 105 27797ft 420kts
14-Feb-17 19:19 35.610676 -112.847553 105 26489ft 414kts
14-Feb-17 19:20 35.571353 -112.716909 106 25340ft 407kts
14-Feb-17 19:21 35.532752 -112.589243 106 24289ft 401kts
14-Feb-17 19:22 35.490994 -112.461059 121 24185ft 431kts
14-Feb-17 19:23 35.375224 -112.420911 177 24243ft 474kts
14-Feb-17 19:24 35.248309 -112.402640 165 24251ft 465kts
14-Feb-17 19:25 35.121341 -112.377249 165 24249ft 465kts
14-Feb-17 19:26 34.995085 -112.349975 166 24241ft 465kts
14-Feb-17 19:27 34.877791 -112.324626 168 24253ft 463kts
14-Feb-17 19:28 34.759575 -112.297065 167 24217ft 463kts
14-Feb-17 19:29 34.635307 -112.269663 167 24193ft 464kts
14-Feb-17 19:30 34.509575 -112.242121 167 24219ft 456kts
14-Feb-17 19:31 34.396147 -112.215698 165 24009ft 392kts
14-Feb-17 19:32 34.291232 -112.188288 165 22277ft 388kts
14-Feb-17 19:33 34.188898 -112.161842 165 20479ft 376kts
14-Feb-17 19:34 34.089872 -112.136307 165 18523ft 364kts
14-Feb-17 19:35 33.997233 -112.100824 159 17035ft 333kts
14-Feb-17 19:36 33.913791 -112.066928 159 15369ft 324kts
14-Feb-17 19:37 33.833709 -112.049350 206 13621ft 319kts
14-Feb-17 19:38 33.781547 -112.130757 237 12151ft 311kts
14-Feb-17 19:39 33.724196 -112.195917 189 11196ft 283kts
14-Feb-17 19:40 33.652636 -112.211220 189 10503ft 255kts
14-Feb-17 19:41 33.584439 -112.217113 180 9281ft 251kts
14-Feb-17 19:42 33.518485 -112.218779 180 8010ft 244kts
14-Feb-17 19:43 33.459578 -112.201948 130 6999ft 212kts
14-Feb-17 19:44 33.440250 -112.146489 84 5731ft 184kts
14-Feb-17 19:45 33.454611 -112.100697 336 4100ft 160kts
14-Feb-17 19:46 33.441353 -112.110162 91 2427ft 167kts
14-Feb-17 19:47 33.437286 -112.059771 122 1864ft 160kts
14-Feb-17 19:48 33.431069 -112.012236 89 1124ft 131kts
14-Feb-17 19:49 33.432838 -112.002353 90 1125ft 16kts
14-Feb-17 19:50 33.434290 -111.999885 91 1124ft 0kts
14-Feb-17 19:51 33.434291 -111.999844 88 1124ft 0kts
14-Feb-17 19:52 33.434291 -111.999844 88 1124ft 0kts
14-Feb-17 19:53 33.434291 -111.999844 88 1124ft 0kts

Navigation Log

Ident Type
Flight plan parsing failed, navigation log unavailable